Time;durP1;ratioP1;P1;durP2;ratioP2;P2;SDS_P1;SDS_P2;PMS_P1;PMS_P2;Temp;Humidity;BMP_temperature;BMP_pressure;BME280_temperature;BME280_humidity;BME280_pressure;Samples;Min_cycle;Max_cycle;Signal;HPM_P1;HPM_P2
2022/07/03 00:00:29;;;;;;;;;;;18.00;99.90;;;;;;5093145;28;20411;-64
2022/07/03 00:02:55;;;;;;;;;;;18.10;99.90;;;;;;5109179;28;20010;-64
2022/07/03 00:05:20;;;;;;;;;;;18.20;99.90;;;;;;5111268;28;19904;-64
2022/07/03 00:07:46;;;;;;;;;;;18.20;99.90;;;;;;5096723;28;19911;-65
2022/07/03 00:10:11;;;;;;;;;;;18.30;99.90;;;;;;5097012;28;20406;-64
2022/07/03 00:12:37;;;;;;;;;;;18.20;99.90;;;;;;5096722;28;19995;-65
2022/07/03 00:15:03;;;;;;;;;;;18.20;99.90;;;;;;5096857;28;19908;-64
2022/07/03 00:17:28;;;;;;;;;;;18.10;99.90;;;;;;5096535;28;19911;-64
2022/07/03 00:19:54;;;;;;;;;;;18.10;99.90;;;;;;5096832;28;19904;-64
2022/07/03 00:22:20;;;;;;;;;;;18.00;99.90;;;;;;5096485;28;20010;-64
2022/07/03 00:24:49;;;;;;;;;;;17.80;99.90;;;;;;5096698;28;20273;-64
2022/07/03 00:27:15;;;;;;;;;;;17.70;99.90;;;;;;5096374;28;19908;-65
2022/07/03 00:29:42;;;;;;;;;;;17.60;99.90;;;;;;5096365;28;19907;-64
2022/07/03 00:32:08;;;;;;;;;;;17.40;99.90;;;;;;5096574;28;20282;-64
2022/07/03 00:34:34;;;;;;;;;;;17.40;99.90;;;;;;5096225;28;19904;-65
2022/07/03 00:37:00;;;;;;;;;;;17.30;99.90;;;;;;5096189;28;20291;-64
2022/07/03 00:39:26;;;;;;;;;;;17.10;99.90;;;;;;5096173;28;20384;-64
2022/07/03 00:41:59;;;;;;;;;;;17.00;99.90;;;;;;5096345;28;19904;-65
2022/07/03 00:44:25;;;;;;;;;;;16.90;99.90;;;;;;5112133;28;19973;-64
2022/07/03 00:46:52;;;;;;;;;;;16.70;99.90;;;;;;5094762;28;20354;-64
2022/07/03 00:49:18;;;;;;;;;;;16.60;99.90;;;;;;5094754;28;19904;-64
2022/07/03 00:51:50;;;;;;;;;;;16.50;99.90;;;;;;5096166;28;19969;-64
2022/07/03 00:54:17;;;;;;;;;;;16.50;99.90;;;;;;5095898;28;19904;-64
2022/07/03 00:56:46;;;;;;;;;;;16.50;99.90;;;;;;5111513;28;20387;-64
2022/07/03 00:59:12;;;;;;;;;;;16.40;99.90;;;;;;5095785;28;19959;-64
2022/07/03 01:01:39;;;;;;;;;;;16.40;99.90;;;;;;5095726;28;19911;-64
2022/07/03 01:04:12;;;;;;;;;;;16.40;99.90;;;;;;5095678;28;19904;-65
2022/07/03 01:06:40;;;;;;;;;;;16.30;99.90;;;;;;5095609;28;19904;-64
2022/07/03 01:09:05;;;;;;;;;;;16.30;99.90;;;;;;5095861;28;20365;-65
2022/07/03 01:11:36;;;;;;;;;;;16.30;99.90;;;;;;5095829;28;20009;-65
2022/07/03 01:14:13;;;;;;;;;;;16.30;99.90;;;;;;5095726;28;20270;-65
2022/07/03 01:16:59;;;;;;;;;;;16.30;99.90;;;;;;5095647;28;20278;-65
2022/07/03 01:19:44;;;;;;;;;;;16.30;99.90;;;;;;5095369;28;19986;-65
2022/07/03 01:22:30;;;;;;;;;;;16.30;99.90;;;;;;5094063;28;19910;-65
2022/07/03 01:25:11;;;;;;;;;;;16.40;99.90;;;;;;5095234;28;19904;-64
2022/07/03 01:27:46;;;;;;;;;;;16.40;99.90;;;;;;5095242;28;20003;-65
2022/07/03 01:30:12;;;;;;;;;;;16.30;99.90;;;;;;5095164;28;19911;-65
2022/07/03 01:32:45;;;;;;;;;;;16.40;99.90;;;;;;5093888;28;19904;-65
2022/07/03 01:35:13;;;;;;;;;;;16.40;99.90;;;;;;5095111;28;19907;-64
2022/07/03 01:37:39;;;;;;;;;;;16.30;99.90;;;;;;5095261;28;20288;-65
2022/07/03 01:40:05;;;;;;;;;;;16.30;99.90;;;;;;5095276;28;20377;-64
2022/07/03 01:42:33;;;;;;;;;;;16.30;99.90;;;;;;5095032;28;19904;-65
2022/07/03 01:44:59;;;;;;;;;;;16.30;99.90;;;;;;5095228;28;19908;-64
2022/07/03 01:47:25;;;;;;;;;;;16.20;99.90;;;;;;5095101;28;19904;-65
2022/07/03 01:49:51;;;;;;;;;;;16.10;99.90;;;;;;5094805;28;20000;-65
2022/07/03 01:52:19;;;;;;;;;;;16.10;99.90;;;;;;5094799;28;19948;-65
2022/07/03 01:54:44;;;;;;;;;;;16.00;99.90;;;;;;5094734;28;19904;-64
2022/07/03 01:57:10;;;;;;;;;;;16.00;99.90;;;;;;5094345;28;19916;-64
2022/07/03 01:59:35;;;;;;;;;;;15.80;99.90;;;;;;5094688;28;19911;-65
2022/07/03 02:02:09;;;;;;;;;;;15.80;99.90;;;;;;5093332;28;20467;-64
2022/07/03 02:04:42;;;;;;;;;;;15.70;99.90;;;;;;5094529;28;19911;-65
2022/07/03 02:07:11;;;;;;;;;;;15.60;99.90;;;;;;5094462;28;19911;-65
2022/07/03 02:09:43;;;;;;;;;;;15.50;99.90;;;;;;5094714;28;19904;-64
2022/07/03 02:12:11;;;;;;;;;;;15.50;99.90;;;;;;5094678;28;19910;-65
2022/07/03 02:14:37;;;;;;;;;;;15.40;99.90;;;;;;5094385;28;19904;-64
2022/07/03 02:20:04;;;;;;;;;;;15.30;99.90;;;;;;5132163;27;19912;-65
2022/07/03 02:22:33;;;;;;;;;;;15.30;99.90;;;;;;5132083;28;19937;-65
2022/07/03 02:25:06;;;;;;;;;;;15.30;99.90;;;;;;5131934;28;19911;-65
2022/07/03 02:27:52;;;;;;;;;;;15.20;99.90;;;;;;5132045;28;20427;-65
2022/07/03 02:30:17;;;;;;;;;;;15.20;99.90;;;;;;5131732;28;20393;-64
2022/07/03 02:32:45;;;;;;;;;;;15.10;99.90;;;;;;5132086;28;19998;-64
2022/07/03 02:35:13;;;;;;;;;;;15.10;99.90;;;;;;5132054;28;19908;-64
2022/07/03 02:37:50;;;;;;;;;;;15.10;99.90;;;;;;5131886;28;20365;-64
2022/07/03 02:40:26;;;;;;;;;;;15.10;99.90;;;;;;5131682;28;20010;-64
2022/07/03 02:43:11;;;;;;;;;;;15.00;99.90;;;;;;5131897;28;20020;-64
2022/07/03 02:45:40;;;;;;;;;;;15.00;99.90;;;;;;5131397;28;20322;-64
2022/07/03 02:48:10;;;;;;;;;;;15.00;99.90;;;;;;5131833;28;19908;-64
2022/07/03 02:50:37;;;;;;;;;;;14.90;99.90;;;;;;5131762;28;19908;-64
2022/07/03 02:53:04;;;;;;;;;;;14.90;99.90;;;;;;5131491;28;19955;-64
2022/07/03 02:55:46;;;;;;;;;;;14.80;99.90;;;;;;5131670;28;19908;-64
2022/07/03 02:58:31;;;;;;;;;;;14.80;99.90;;;;;;5131338;28;20479;-65
2022/07/03 03:01:03;;;;;;;;;;;14.70;99.90;;;;;;5131165;28;20285;-65
2022/07/03 03:03:29;;;;;;;;;;;14.70;99.90;;;;;;5131508;28;19908;-65
2022/07/03 03:05:55;;;;;;;;;;;14.70;99.90;;;;;;5131496;28;20285;-65
2022/07/03 03:08:41;;;;;;;;;;;14.70;99.90;;;;;;5131098;28;19914;-65
2022/07/03 03:11:08;;;;;;;;;;;14.60;99.90;;;;;;5131004;28;20032;-65
2022/07/03 03:13:34;;;;;;;;;;;14.60;99.90;;;;;;5113124;28;19914;-66
2022/07/03 03:16:08;;;;;;;;;;;14.60;99.90;;;;;;5131026;28;19946;-65
2022/07/03 03:18:35;;;;;;;;;;;14.60;99.90;;;;;;5130786;28;20361;-65
2022/07/03 03:21:02;;;;;;;;;;;14.60;99.90;;;;;;5131025;28;19955;-65
2022/07/03 03:23:49;;;;;;;;;;;14.70;99.90;;;;;;5131085;28;19907;-65
2022/07/03 03:26:23;;;;;;;;;;;14.70;99.90;;;;;;5130697;28;19915;-65
2022/07/03 03:28:49;;;;;;;;;;;14.70;99.90;;;;;;5130500;28;19936;-65
2022/07/03 03:31:14;;;;;;;;;;;14.70;99.90;;;;;;5116361;28;20003;-64
2022/07/03 03:33:41;;;;;;;;;;;14.70;99.90;;;;;;5117260;28;19907;-65
2022/07/03 03:36:08;;;;;;;;;;;14.70;99.90;;;;;;5116893;28;19915;-65
2022/07/03 03:38:34;;;;;;;;;;;14.70;99.90;;;;;;5116793;28;20400;-65
2022/07/03 03:41:00;;;;;;;;;;;14.70;99.90;;;;;;5098570;28;19908;-65
2022/07/03 03:43:26;;;;;;;;;;;14.70;99.90;;;;;;5116745;28;19956;-65
2022/07/03 03:45:51;;;;;;;;;;;14.70;99.90;;;;;;5117026;28;19907;-65
2022/07/03 03:48:17;;;;;;;;;;;14.80;99.90;;;;;;5116708;28;19915;-66
2022/07/03 03:50:43;;;;;;;;;;;14.80;99.90;;;;;;5098405;28;19908;-65
2022/07/03 03:53:10;;;;;;;;;;;14.80;99.90;;;;;;5116871;28;20012;-65
2022/07/03 03:55:35;;;;;;;;;;;14.90;99.90;;;;;;5116541;28;20370;-65
2022/07/03 03:58:01;;;;;;;;;;;14.90;99.90;;;;;;5116716;28;19912;-66
2022/07/03 04:00:35;;;;;;;;;;;14.90;99.90;;;;;;5116455;28;19908;-66
2022/07/03 04:03:00;;;;;;;;;;;14.90;99.90;;;;;;5116697;28;19908;-66
2022/07/03 04:05:26;;;;;;;;;;;14.90;99.90;;;;;;5116618;28;19950;-66
2022/07/03 04:07:51;;;;;;;;;;;15.00;99.90;;;;;;5098055;28;20045;-66
2022/07/03 04:10:17;;;;;;;;;;;15.10;99.90;;;;;;5116513;28;19914;-66
2022/07/03 04:12:42;;;;;;;;;;;15.20;99.90;;;;;;5098036;28;19908;-66
2022/07/03 04:15:08;;;;;;;;;;;15.30;99.90;;;;;;5116157;28;19915;-66
2022/07/03 04:17:33;;;;;;;;;;;15.30;99.90;;;;;;5116105;28;19908;-65
2022/07/03 04:19:59;;;;;;;;;;;15.40;99.90;;;;;;5116341;28;19908;-66
2022/07/03 04:22:24;;;;;;;;;;;15.50;99.90;;;;;;5116296;28;19911;-66
2022/07/03 04:24:50;;;;;;;;;;;15.60;99.90;;;;;;5116243;28;19911;-66
2022/07/03 04:27:15;;;;;;;;;;;15.80;99.90;;;;;;5098011;28;19954;-66
2022/07/03 04:29:41;;;;;;;;;;;15.90;99.90;;;;;;5116140;28;19908;-65
2022/07/03 04:32:07;;;;;;;;;;;16.10;99.90;;;;;;5116087;28;20407;-66
2022/07/03 04:34:33;;;;;;;;;;;16.20;99.90;;;;;;5115846;28;20282;-66
2022/07/03 04:36:58;;;;;;;;;;;16.50;99.90;;;;;;5115737;28;19908;-66
2022/07/03 04:39:24;;;;;;;;;;;16.80;99.90;;;;;;5115675;28;19966;-66
2022/07/03 04:41:49;;;;;;;;;;;17.50;99.90;;;;;;5114910;28;19908;-67
2022/07/03 04:44:15;;;;;;;;;;;18.90;99.90;;;;;;5115634;28;19912;-66
2022/07/03 04:46:40;;;;;;;;;;;20.70;99.90;;;;;;5115824;28;19907;-67
2022/07/03 04:49:06;;;;;;;;;;;22.40;99.90;;;;;;5115770;28;20285;-66
2022/07/03 04:51:31;;;;;;;;;;;23.50;99.90;;;;;;5115700;28;19916;-66
2022/07/03 04:53:57;;;;;;;;;;;24.00;99.90;;;;;;5115385;28;19951;-66
2022/07/03 04:56:22;;;;;;;;;;;24.80;99.90;;;;;;5115257;28;19915;-66
2022/07/03 04:58:47;;;;;;;;;;;24.70;99.90;;;;;;5115140;28;19912;-67
2022/07/03 05:01:13;;;;;;;;;;;24.10;99.90;;;;;;5115247;28;19911;-66
2022/07/03 05:03:38;;;;;;;;;;;24.10;99.90;;;;;;5115394;28;20397;-67
2022/07/03 05:06:04;;;;;;;;;;;23.70;99.90;;;;;;5115134;28;19910;-66
2022/07/03 05:08:29;;;;;;;;;;;23.30;99.90;;;;;;5115391;28;20002;-66
2022/07/03 05:10:55;;;;;;;;;;;22.90;99.90;;;;;;5115062;28;19911;-66
2022/07/03 05:13:20;;;;;;;;;;;23.10;99.90;;;;;;5115259;28;20376;-66
2022/07/03 05:15:46;;;;;;;;;;;22.80;99.90;;;;;;5115247;28;19907;-66
2022/07/03 05:18:11;;;;;;;;;;;23.20;99.90;;;;;;5114698;28;19963;-66
2022/07/03 05:20:37;;;;;;;;;;;23.70;99.90;;;;;;5115121;28;20024;-63
2022/07/03 05:23:02;;;;;;;;;;;24.90;99.90;;;;;;5115124;28;19908;-63
2022/07/03 05:25:29;;;;;;;;;;;25.40;99.90;;;;;;5114647;28;20357;-63
2022/07/03 05:27:55;;;;;;;;;;;26.50;97.30;;;;;;5114751;28;19908;-63
2022/07/03 05:30:21;;;;;;;;;;;26.50;94.80;;;;;;5114952;28;19931;-63
2022/07/03 05:32:47;;;;;;;;;;;26.30;94.60;;;;;;5114936;28;19908;-63
2022/07/03 05:35:12;;;;;;;;;;;25.60;95.30;;;;;;5114601;28;20320;-63
2022/07/03 05:37:38;;;;;;;;;;;25.30;95.10;;;;;;5114495;28;19950;-63
2022/07/03 05:40:04;;;;;;;;;;;25.10;95.70;;;;;;5114822;28;20362;-63
2022/07/03 05:42:30;;;;;;;;;;;25.70;94.70;;;;;;5114771;28;19961;-63
2022/07/03 05:44:55;;;;;;;;;;;26.10;94.00;;;;;;5114676;28;20362;-63
2022/07/03 05:47:21;;;;;;;;;;;26.00;93.50;;;;;;5114662;28;19908;-63
2022/07/03 05:49:47;;;;;;;;;;;25.60;92.70;;;;;;5114316;28;20445;-63
2022/07/03 05:52:13;;;;;;;;;;;25.00;94.30;;;;;;5114012;28;19914;-65
2022/07/03 05:54:38;;;;;;;;;;;24.40;96.30;;;;;;5114312;28;19955;-65
2022/07/03 05:57:04;;;;;;;;;;;23.80;96.50;;;;;;5114575;28;19908;-66
2022/07/03 05:59:29;;;;;;;;;;;23.40;99.00;;;;;;5114133;28;19918;-65
2022/07/03 06:01:55;;;;;;;;;;;24.70;97.20;;;;;;5114508;28;19918;-65
2022/07/03 06:04:20;;;;;;;;;;;25.20;95.00;;;;;;5114478;28;19907;-66
2022/07/03 06:06:46;;;;;;;;;;;25.10;98.40;;;;;;5114175;28;20294;-65
2022/07/03 06:09:11;;;;;;;;;;;25.10;95.40;;;;;;5114424;28;19908;-65
2022/07/03 06:11:36;;;;;;;;;;;25.50;97.00;;;;;;5114377;28;19994;-66
2022/07/03 06:14:02;;;;;;;;;;;26.00;95.70;;;;;;5114118;28;20316;-65
2022/07/03 06:16:27;;;;;;;;;;;26.40;94.80;;;;;;5114047;28;20002;-65
2022/07/03 06:18:53;;;;;;;;;;;26.30;92.60;;;;;;5113799;28;20419;-65
2022/07/03 06:21:18;;;;;;;;;;;26.40;94.00;;;;;;5114029;28;19907;-66
2022/07/03 06:23:44;;;;;;;;;;;26.40;93.50;;;;;;5095876;28;20030;-65
2022/07/03 06:26:09;;;;;;;;;;;26.50;93.10;;;;;;5114063;28;20388;-65
2022/07/03 06:28:35;;;;;;;;;;;27.00;90.50;;;;;;5114222;28;19965;-65
2022/07/03 06:31:00;;;;;;;;;;;27.20;89.20;;;;;;5114265;28;20380;-65
2022/07/03 06:33:26;;;;;;;;;;;27.70;88.20;;;;;;5113933;28;20339;-63
2022/07/03 06:35:51;;;;;;;;;;;27.80;88.00;;;;;;5114188;28;19908;-62
2022/07/03 06:38:17;;;;;;;;;;;28.00;87.60;;;;;;5113760;28;20281;-65
2022/07/03 06:40:42;;;;;;;;;;;28.80;84.50;;;;;;5113874;28;19908;-65
2022/07/03 06:43:08;;;;;;;;;;;29.40;82.00;;;;;;5114095;28;19908;-65
2022/07/03 06:45:33;;;;;;;;;;;29.20;78.40;;;;;;5113894;28;20281;-63
2022/07/03 06:47:59;;;;;;;;;;;29.20;78.00;;;;;;5095543;28;19908;-63
2022/07/03 06:50:24;;;;;;;;;;;29.20;78.70;;;;;;5113729;28;20422;-63
2022/07/03 06:52:50;;;;;;;;;;;28.90;77.10;;;;;;5114032;28;19908;-63
2022/07/03 06:55:15;;;;;;;;;;;29.40;77.60;;;;;;5113956;28;20018;-63
2022/07/03 06:57:41;;;;;;;;;;;29.30;77.70;;;;;;5113892;28;19908;-63
2022/07/03 07:00:06;;;;;;;;;;;29.10;76.20;;;;;;5113661;28;19915;-63
2022/07/03 07:02:32;;;;;;;;;;;30.10;74.10;;;;;;5113678;28;19916;-63
2022/07/03 07:04:57;;;;;;;;;;;29.90;72.70;;;;;;5114883;28;19914;-63
2022/07/03 07:07:23;;;;;;;;;;;29.60;73.80;;;;;;5099320;28;20289;-63
2022/07/03 07:09:48;;;;;;;;;;;29.60;72.50;;;;;;5117463;28;19912;-63
2022/07/03 07:12:14;;;;;;;;;;;29.60;71.30;;;;;;5117450;28;20381;-63
2022/07/03 07:14:40;;;;;;;;;;;29.90;70.10;;;;;;5117621;28;19957;-63
2022/07/03 07:17:05;;;;;;;;;;;29.50;70.60;;;;;;5117314;28;20285;-65
2022/07/03 07:19:31;;;;;;;;;;;28.80;70.70;;;;;;5117055;28;19967;-65
2022/07/03 07:21:56;;;;;;;;;;;29.10;73.90;;;;;;5117482;28;19960;-65
2022/07/03 07:24:22;;;;;;;;;;;29.40;75.10;;;;;;5098935;28;19990;-65
2022/07/03 07:26:47;;;;;;;;;;;29.50;72.90;;;;;;5117431;28;19907;-63
2022/07/03 07:29:13;;;;;;;;;;;29.10;71.30;;;;;;5117148;28;20250;-63
2022/07/03 07:31:38;;;;;;;;;;;28.80;72.60;;;;;;5117084;28;19914;-63
2022/07/03 07:34:04;;;;;;;;;;;29.10;76.50;;;;;;5116951;28;19972;-63
2022/07/03 07:36:30;;;;;;;;;;;29.20;71.60;;;;;;5117201;28;20002;-65
2022/07/03 07:38:56;;;;;;;;;;;29.50;71.20;;;;;;5116829;28;20017;-65
2022/07/03 07:41:21;;;;;;;;;;;30.10;70.50;;;;;;5116864;28;19908;-63
2022/07/03 07:43:46;;;;;;;;;;;31.00;69.80;;;;;;5116809;28;19908;-63
2022/07/03 07:46:12;;;;;;;;;;;30.70;71.70;;;;;;5098814;28;19908;-63
2022/07/03 07:48:38;;;;;;;;;;;30.10;70.90;;;;;;5116768;28;19908;-63
2022/07/03 07:51:04;;;;;;;;;;;29.90;71.50;;;;;;5116642;28;19954;-63
2022/07/03 07:53:29;;;;;;;;;;;30.90;70.50;;;;;;5116852;28;20358;-63
2022/07/03 07:55:55;;;;;;;;;;;31.10;69.10;;;;;;5116845;28;19926;-63
2022/07/03 07:58:22;;;;;;;;;;;30.90;66.30;;;;;;5116437;28;19911;-63
2022/07/03 08:06:18;;;;;;;;;;;30.90;64.20;;;;;;5116105;28;19915;-65
2022/07/03 08:08:44;;;;;;;;;;;29.70;65.30;;;;;;5116604;28;19907;-65
2022/07/03 08:11:09;;;;;;;;;;;29.90;68.00;;;;;;5116239;28;19908;-65
2022/07/03 08:13:35;;;;;;;;;;;30.70;66.10;;;;;;5116215;28;20388;-65
2022/07/03 08:16:00;;;;;;;;;;;30.10;67.50;;;;;;5115995;28;19908;-65
2022/07/03 08:18:26;;;;;;;;;;;31.10;65.30;;;;;;5115953;28;19927;-65
2022/07/03 08:20:51;;;;;;;;;;;31.30;64.80;;;;;;5116138;28;19912;-63
2022/07/03 08:23:17;;;;;;;;;;;31.80;64.30;;;;;;5116138;28;19912;-63
2022/07/03 08:25:42;;;;;;;;;;;32.10;65.00;;;;;;5116215;28;19914;-63
2022/07/03 08:28:08;;;;;;;;;;;30.60;64.90;;;;;;5097785;28;20026;-66
2022/07/03 08:30:33;;;;;;;;;;;30.20;66.20;;;;;;5115957;28;19915;-66
2022/07/03 08:32:59;;;;;;;;;;;30.10;67.90;;;;;;5115870;28;19957;-65
2022/07/03 08:35:25;;;;;;;;;;;30.40;66.10;;;;;;5115862;28;19969;-66
2022/07/03 08:37:50;;;;;;;;;;;29.50;66.20;;;;;;5115921;28;19978;-65
2022/07/03 08:40:18;;;;;;;;;;;29.10;66.80;;;;;;5115918;28;20369;-66
2022/07/03 08:43:03;;;;;;;;;;;29.60;68.40;;;;;;5115755;28;19996;-66
2022/07/03 08:45:29;;;;;;;;;;;30.80;65.10;;;;;;5115550;28;19914;-66
2022/07/03 08:47:56;;;;;;;;;;;31.60;63.00;;;;;;5115852;28;20304;-62
2022/07/03 08:50:22;;;;;;;;;;;31.10;61.90;;;;;;5115499;28;19908;-65
2022/07/03 08:52:48;;;;;;;;;;;30.90;64.70;;;;;;5115453;28;20361;-66
2022/07/03 08:55:14;;;;;;;;;;;30.80;64.50;;;;;;5115425;28;19957;-66
2022/07/03 08:57:40;;;;;;;;;;;31.10;64.10;;;;;;5115544;28;20010;-66
2022/07/03 09:00:07;;;;;;;;;;;30.70;63.50;;;;;;5115446;28;19919;-65
2022/07/03 09:02:33;;;;;;;;;;;29.70;65.60;;;;;;5115518;28;19908;-65
2022/07/03 09:04:59;;;;;;;;;;;30.30;65.20;;;;;;5115520;28;20408;-64
2022/07/03 09:07:26;;;;;;;;;;;31.00;65.00;;;;;;5096997;28;19908;-64
2022/07/03 09:09:51;;;;;;;;;;;31.10;63.50;;;;;;5115091;28;19915;-64
2022/07/03 09:12:18;;;;;;;;;;;31.00;62.80;;;;;;5115123;28;19908;-66
2022/07/03 09:14:43;;;;;;;;;;;30.50;64.40;;;;;;5079890;28;19908;-64
2022/07/03 09:17:09;;;;;;;;;;;31.00;62.80;;;;;;5115003;28;20396;-65
2022/07/03 09:19:50;;;;;;;;;;;31.30;61.10;;;;;;5114780;28;19970;-64
2022/07/03 09:22:21;;;;;;;;;;;31.20;62.40;;;;;;5115179;28;19912;-64
2022/07/03 09:25:03;;;;;;;;;;;31.00;61.50;;;;;;5114859;28;19908;-66
2022/07/03 09:27:29;;;;;;;;;;;30.60;62.30;;;;;;5114554;28;19908;-65
2022/07/03 09:30:03;;;;;;;;;;;30.40;61.90;;;;;;5114732;28;19908;-65
2022/07/03 09:32:34;;;;;;;;;;;30.60;61.40;;;;;;5114668;28;19909;-64
2022/07/03 09:35:20;;;;;;;;;;;30.20;60.10;;;;;;5114933;28;19946;-65
2022/07/03 09:40:27;;;;;;;;;;;30.60;61.20;;;;;;5106914;27;1899455;-65
2022/07/03 09:43:08;;;;;;;;;;;31.10;63.20;;;;;;5173761;27;19918;-65
2022/07/03 09:45:50;;;;;;;;;;;31.80;61.50;;;;;;5173739;27;19911;-65
2022/07/03 09:48:32;;;;;;;;;;;30.30;61.20;;;;;;5173737;27;19918;-65
2022/07/03 09:51:08;;;;;;;;;;;29.40;63.50;;;;;;5173649;27;19907;-65
2022/07/03 09:53:50;;;;;;;;;;;30.70;63.10;;;;;;5173623;27;19907;-65
2022/07/03 09:56:16;;;;;;;;;;;30.40;61.10;;;;;;5173539;27;19911;-66
2022/07/03 09:58:58;;;;;;;;;;;30.20;61.60;;;;;;5173405;27;19918;-66
2022/07/03 10:01:24;;;;;;;;;;;30.70;61.00;;;;;;5173199;27;19911;-65
2022/07/03 10:03:49;;;;;;;;;;;30.50;63.70;;;;;;5173372;27;20269;-65
2022/07/03 10:06:15;;;;;;;;;;;30.20;62.00;;;;;;5173089;27;19915;-65
2022/07/03 10:08:42;;;;;;;;;;;30.10;62.40;;;;;;5173006;27;19950;-65
2022/07/03 10:11:08;;;;;;;;;;;29.90;62.90;;;;;;5173268;27;20046;-65
2022/07/03 10:13:36;;;;;;;;;;;31.00;60.90;;;;;;5173260;27;20387;-63
2022/07/03 10:16:02;;;;;;;;;;;31.50;59.70;;;;;;5173167;27;19914;-65
2022/07/03 10:18:30;;;;;;;;;;;31.50;59.90;;;;;;5154328;27;20010;-66
2022/07/03 10:20:57;;;;;;;;;;;31.00;59.10;;;;;;5172812;27;19907;-66
2022/07/03 10:23:24;;;;;;;;;;;31.80;59.70;;;;;;5173044;27;20285;-65
2022/07/03 10:25:49;;;;;;;;;;;30.00;60.20;;;;;;5172999;27;19946;-65
2022/07/03 10:28:16;;;;;;;;;;;28.10;63.60;;;;;;5172717;27;19911;-65
2022/07/03 10:30:43;;;;;;;;;;;27.60;66.40;;;;;;5172880;27;19959;-65
2022/07/03 10:33:09;;;;;;;;;;;27.40;66.70;;;;;;5172772;27;19911;-65
2022/07/03 10:35:36;;;;;;;;;;;27.20;66.90;;;;;;5172783;27;19914;-65
2022/07/03 10:38:04;;;;;;;;;;;27.50;65.90;;;;;;5172683;27;20328;-65
2022/07/03 10:46:14;;;;;;;;;;;27.10;66.80;;;;;;5091062;28;20292;-65
2022/07/03 10:48:56;;;;;;;;;;;28.20;65.00;;;;;;5091307;28;20294;-65
2022/07/03 10:51:22;;;;;;;;;;;28.90;62.20;;;;;;5124012;28;19909;-65
2022/07/03 10:53:48;;;;;;;;;;;29.80;60.80;;;;;;5091246;28;19915;-64
2022/07/03 10:56:15;;;;;;;;;;;29.30;63.20;;;;;;5091230;28;19908;-65
2022/07/03 10:58:56;;;;;;;;;;;28.30;63.90;;;;;;5091178;28;19944;-65
2022/07/03 11:01:26;;;;;;;;;;;28.20;66.30;;;;;;5091055;28;20382;-65
2022/07/03 11:03:57;;;;;;;;;;;27.70;65.60;;;;;;5090879;28;19958;-64
2022/07/03 11:06:43;;;;;;;;;;;27.30;67.10;;;;;;5090800;28;19931;-65
2022/07/03 11:09:09;;;;;;;;;;;28.00;67.70;;;;;;5090882;28;19908;-65
2022/07/03 11:11:57;;;;;;;;;;;29.10;64.20;;;;;;5090942;28;19908;-64
2022/07/03 11:14:24;;;;;;;;;;;29.40;62.80;;;;;;5090891;28;20271;-64
2022/07/03 11:17:10;;;;;;;;;;;29.30;59.50;;;;;;5090817;28;19908;-65
2022/07/03 11:19:35;;;;;;;;;;;28.90;59.50;;;;;;5090689;28;19944;-64
2022/07/03 11:22:06;;;;;;;;;;;28.70;61.20;;;;;;5090391;28;19966;-65
2022/07/03 11:24:43;;;;;;;;;;;28.90;63.70;;;;;;5090403;28;19959;-64
2022/07/03 11:27:24;;;;;;;;;;;28.30;63.60;;;;;;5090314;28;19908;-65
2022/07/03 11:29:50;;;;;;;;;;;28.00;59.50;;;;;;5090538;28;19912;-64
2022/07/03 11:32:36;;;;;;;;;;;28.20;61.90;;;;;;5090651;28;20392;-65
2022/07/03 11:35:01;;;;;;;;;;;28.90;58.80;;;;;;5090271;28;20294;-65
2022/07/03 11:37:28;;;;;;;;;;;28.60;59.10;;;;;;5090059;28;19908;-65
2022/07/03 11:39:55;;;;;;;;;;;29.10;60.30;;;;;;5090385;28;20387;-64
2022/07/03 11:42:21;;;;;;;;;;;29.10;59.40;;;;;;5101872;28;19920;-65
2022/07/03 11:44:47;;;;;;;;;;;28.80;59.60;;;;;;5092585;28;20328;-64
2022/07/03 11:47:14;;;;;;;;;;;28.80;58.50;;;;;;5110333;28;19912;-65
2022/07/03 11:49:47;;;;;;;;;;;29.00;58.50;;;;;;5110283;28;20282;-65
2022/07/03 11:52:12;;;;;;;;;;;29.10;59.70;;;;;;5110222;28;19958;-65
2022/07/03 11:54:54;;;;;;;;;;;28.70;59.70;;;;;;5097306;28;19912;-65
2022/07/03 11:57:19;;;;;;;;;;;28.00;62.30;;;;;;5096811;28;19908;-65
2022/07/03 11:59:45;;;;;;;;;;;28.10;62.30;;;;;;5096396;28;19912;-65
2022/07/03 12:02:10;;;;;;;;;;;27.90;63.40;;;;;;5078330;28;19912;-65
2022/07/03 12:04:38;;;;;;;;;;;28.00;64.50;;;;;;5096706;28;20310;-65
2022/07/03 12:07:03;;;;;;;;;;;27.80;65.90;;;;;;5096414;28;19915;-65
2022/07/03 12:09:30;;;;;;;;;;;28.10;64.80;;;;;;5096543;28;19909;-65
2022/07/03 12:12:00;;;;;;;;;;;28.10;64.90;;;;;;5096573;28;20373;-65
2022/07/03 12:14:42;;;;;;;;;;;27.90;66.30;;;;;;5096472;28;19989;-66
2022/07/03 12:17:12;;;;;;;;;;;28.80;65.10;;;;;;5096372;28;20389;-65
2022/07/03 12:19:38;;;;;;;;;;;29.10;62.80;;;;;;5096232;28;19908;-64
2022/07/03 12:22:04;;;;;;;;;;;29.00;64.30;;;;;;5096036;28;19912;-65
2022/07/03 12:24:29;;;;;;;;;;;29.20;62.30;;;;;;5096265;28;19908;-65
2022/07/03 12:26:55;;;;;;;;;;;28.60;63.20;;;;;;5096249;28;20267;-64
2022/07/03 12:29:20;;;;;;;;;;;27.80;64.40;;;;;;5095966;28;19908;-64
2022/07/03 12:31:47;;;;;;;;;;;28.10;64.50;;;;;;5095886;28;19908;-64
2022/07/03 12:34:13;;;;;;;;;;;27.90;62.80;;;;;;5096098;28;19919;-65
2022/07/03 12:36:40;;;;;;;;;;;28.60;63.60;;;;;;5095769;28;19933;-64
2022/07/03 12:39:06;;;;;;;;;;;28.60;62.10;;;;;;5096021;28;20369;-64
2022/07/03 12:41:32;;;;;;;;;;;28.20;63.30;;;;;;5095458;28;19927;-64
2022/07/03 12:43:58;;;;;;;;;;;28.40;67.30;;;;;;5095937;28;19908;-64
2022/07/03 12:46:25;;;;;;;;;;;28.70;67.30;;;;;;5095650;28;20092;-64
2022/07/03 12:48:53;;;;;;;;;;;29.20;66.20;;;;;;5095567;28;20424;-65
2022/07/03 12:51:39;;;;;;;;;;;29.20;62.10;;;;;;5095740;28;19959;-64
2022/07/03 12:54:04;;;;;;;;;;;29.10;62.50;;;;;;5095395;28;19908;-64
2022/07/03 12:56:30;;;;;;;;;;;28.50;61.50;;;;;;5095631;28;19908;-65
2022/07/03 12:59:26;;;;;;;;;;;28.20;64.20;;;;;;5095616;28;19908;-64
2022/07/03 13:01:41;;;;;;;;;;;28.40;63.10;;;;;;5095160;28;20362;-65
2022/07/03 13:04:08;;;;;;;;;;;28.00;64.90;;;;;;5095175;28;19914;-65
2022/07/03 13:06:34;;;;;;;;;;;27.80;66.30;;;;;;5094652;28;19908;-64
2022/07/03 13:09:01;;;;;;;;;;;27.50;67.20;;;;;;5076916;28;19908;-65
2022/07/03 13:11:28;;;;;;;;;;;27.70;68.30;;;;;;5076925;28;19994;-65
2022/07/03 13:14:00;;;;;;;;;;;27.80;66.20;;;;;;5095337;28;19908;-64
2022/07/03 13:16:26;;;;;;;;;;;27.70;66.70;;;;;;5095290;28;20434;-64
2022/07/03 13:18:59;;;;;;;;;;;27.80;68.60;;;;;;5095233;28;19912;-65
2022/07/03 13:21:25;;;;;;;;;;;27.50;68.20;;;;;;5095108;28;19912;-64
2022/07/03 13:23:50;;;;;;;;;;;27.70;68.80;;;;;;5094843;28;19916;-64
2022/07/03 13:26:16;;;;;;;;;;;28.00;68.00;;;;;;5095104;28;19908;-65
2022/07/03 13:28:41;;;;;;;;;;;28.30;67.70;;;;;;5095124;28;20454;-64
2022/07/03 13:31:06;;;;;;;;;;;28.60;68.10;;;;;;5094728;28;19908;-65
2022/07/03 13:33:32;;;;;;;;;;;28.80;66.70;;;;;;5094663;28;19916;-64
2022/07/03 13:35:57;;;;;;;;;;;28.70;65.60;;;;;;5094649;28;19952;-64
2022/07/03 13:38:23;;;;;;;;;;;28.20;63.20;;;;;;5094647;28;19915;-64
2022/07/03 13:40:48;;;;;;;;;;;28.00;65.10;;;;;;5094545;28;19934;-64
2022/07/03 13:43:14;;;;;;;;;;;28.10;65.40;;;;;;5094336;28;19920;-64
2022/07/03 13:45:39;;;;;;;;;;;27.50;64.70;;;;;;5094487;28;19908;-64
2022/07/03 13:48:05;;;;;;;;;;;27.90;65.70;;;;;;5094741;28;19940;-64
2022/07/03 13:50:30;;;;;;;;;;;28.30;63.50;;;;;;5094359;28;19908;-64
2022/07/03 13:52:56;;;;;;;;;;;28.10;62.70;;;;;;5094611;28;19908;-64
2022/07/03 13:55:21;;;;;;;;;;;27.90;63.50;;;;;;5094592;28;19908;-64
2022/07/03 13:57:47;;;;;;;;;;;27.90;64.20;;;;;;5094542;28;20388;-64
2022/07/03 14:00:12;;;;;;;;;;;28.10;65.00;;;;;;5076443;28;19912;-64
2022/07/03 14:02:39;;;;;;;;;;;28.20;63.80;;;;;;5094354;28;19970;-64
2022/07/03 14:05:05;;;;;;;;;;;28.20;63.80;;;;;;5094477;28;19908;-64
2022/07/03 14:07:30;;;;;;;;;;;28.30;63.80;;;;;;5076088;28;19912;-65
2022/07/03 14:09:56;;;;;;;;;;;28.30;63.50;;;;;;5076000;28;20423;-65
2022/07/03 14:12:21;;;;;;;;;;;28.20;64.40;;;;;;5094347;28;19915;-65
2022/07/03 14:14:47;;;;;;;;;;;28.20;64.20;;;;;;5094037;28;19999;-65
2022/07/03 14:17:12;;;;;;;;;;;28.40;63.70;;;;;;5094019;28;19919;-65
2022/07/03 14:19:38;;;;;;;;;;;28.40;64.20;;;;;;5094492;28;19958;-65
2022/07/03 14:22:03;;;;;;;;;;;28.50;63.20;;;;;;5093833;28;19919;-65
2022/07/03 14:24:29;;;;;;;;;;;28.30;65.10;;;;;;5093855;28;20297;-65
2022/07/03 14:32:32;;;;;;;;;;;28.20;64.00;;;;;;5093595;28;19951;-64
2022/07/03 14:34:58;;;;;;;;;;;28.30;63.90;;;;;;5094015;28;19915;-64
2022/07/03 14:37:24;;;;;;;;;;;28.00;64.20;;;;;;5093938;28;19915;-64
2022/07/03 14:39:49;;;;;;;;;;;28.30;64.50;;;;;;5094056;28;19908;-66
2022/07/03 14:42:15;;;;;;;;;;;28.20;64.40;;;;;;5093493;28;19971;-64